Time;durP1;ratioP1;P1;durP2;ratioP2;P2;SDS_P1;SDS_P2;PMS_P1;PMS_P2;Temp;Humidity;BMP_temperature;BMP_pressure;BME280_temperature;BME280_humidity;BME280_pressure;Samples;Min_cycle;Max_cycle;Signal;HPM_P1;HPM_P2
2023/10/12 00:00:42;;;;;;;12.70;4.80;;;;;19.40;98498.00;;;;5054349;28;20068;-67
2023/10/12 00:03:12;;;;;;;7.88;4.25;;;;;19.40;98485.00;;;;5055059;28;20047;-66
2023/10/12 00:05:45;;;;;;;15.00;4.30;;;;;19.30;98495.00;;;;5054402;28;20037;-67
2023/10/12 00:08:29;;;;;;;8.55;4.63;;;;;19.30;98484.00;;;;5055163;28;20056;-67
2023/10/12 00:10:57;;;;;;;10.88;4.63;;;;;19.30;98487.00;;;;5054783;28;20083;-67
2023/10/12 00:13:28;;;;;;;8.73;4.25;;;;;19.30;98487.00;;;;5036964;28;20048;-68
2023/10/12 00:15:56;;;;;;;13.95;5.18;;;;;19.20;98485.00;;;;5054453;28;20546;-68
2023/10/12 00:18:23;;;;;;;12.10;5.07;;;;;19.20;98487.00;;;;5053270;28;20052;-67
2023/10/12 00:20:54;;;;;;;14.90;4.38;;;;;19.20;98489.00;;;;5052487;28;20144;-68
2023/10/12 00:23:21;;;;;;;9.23;4.50;;;;;19.20;98477.00;;;;5053373;28;20489;-68
2023/10/12 00:25:58;;;;;;;9.23;3.92;;;;;19.20;98486.00;;;;5054060;28;20072;-67
2023/10/12 00:28:38;;;;;;;11.68;4.32;;;;;19.20;98477.00;;;;5054395;28;20049;-67
2023/10/12 00:31:11;;;;;;;11.05;4.25;;;;;19.20;98480.00;;;;5054454;28;20056;-67
2023/10/12 00:33:38;;;;;;;12.25;4.38;;;;;19.10;98482.00;;;;5052672;28;20410;-67
2023/10/12 00:36:19;;;;;;;7.68;4.15;;;;;19.10;98481.00;;;;5054129;28;20037;-67
2023/10/12 00:38:46;;;;;;;8.88;4.63;;;;;19.00;98478.00;;;;5052927;28;20049;-66
2023/10/12 00:41:17;;;;;;;14.07;4.50;;;;;19.00;98483.00;;;;5053185;28;20099;-66
2023/10/12 00:43:58;;;;;;;10.18;4.90;;;;;19.00;98477.00;;;;5052464;28;20128;-68
2023/10/12 00:51:38;;;;;;;9.13;4.47;;;;;19.00;98469.00;;;;5052860;28;20048;-66
2023/10/12 00:54:09;;;;;;;7.57;4.25;;;;;19.00;98464.00;;;;5052320;28;20406;-67
2023/10/12 00:56:36;;;;;;;7.05;4.13;;;;;19.00;98461.00;;;;5052793;28;20075;-66
2023/10/12 00:59:03;;;;;;;12.43;4.28;;;;;19.00;98468.00;;;;5053807;28;20068;-67
2023/10/12 01:01:32;;;;;;;11.05;4.50;;;;;19.00;98466.00;;;;5053740;28;20083;-66
2023/10/12 01:03:59;;;;;;;9.20;4.18;;;;;19.00;98464.00;;;;5053042;28;20456;-67
2023/10/12 01:08:59;;;;;;;7.90;3.83;;;;;19.00;98462.00;;;;5053810;28;20131;-67
2023/10/12 01:11:26;;;;;;;10.82;4.53;;;;;19.00;98457.00;;;;5053670;28;20041;-66
2023/10/12 01:14:09;;;;;;;7.65;4.07;;;;;19.00;98460.00;;;;5052977;28;20040;-66
2023/10/12 01:19:10;;;;;;;10.35;4.32;;;;;19.00;98452.00;;;;5052179;28;20147;-67
2023/10/12 01:21:37;;;;;;;7.07;3.88;;;;;19.00;98454.00;;;;5052109;28;20098;-66
2023/10/12 01:24:11;;;;;;;7.70;4.20;;;;;19.00;98450.00;;;;5051630;28;20069;-66
2023/10/12 01:26:40;;;;;;;11.15;4.38;;;;;18.90;98454.00;;;;5053464;28;20124;-66
2023/10/12 01:29:11;;;;;;;10.02;4.53;;;;;18.90;98449.00;;;;5052625;28;20045;-66
2023/10/12 01:31:43;;;;;;;11.13;4.20;;;;;18.90;98463.00;;;;5053415;28;20069;-65
2023/10/12 01:34:13;;;;;;;7.85;4.13;;;;;18.90;98459.00;;;;5051225;28;20060;-66
2023/10/12 01:36:43;;;;;;;7.15;4.32;;;;;18.90;98466.00;;;;5051722;28;20053;-66
2023/10/12 01:39:14;;;;;;;8.40;4.50;;;;;18.80;98462.00;;;;5051460;28;20045;-65
2023/10/12 01:41:41;;;;;;;10.70;4.32;;;;;18.80;98466.00;;;;5051676;28;20469;-65
2023/10/12 01:44:11;;;;;;;10.80;4.85;;;;;18.80;98464.00;;;;5050945;28;20453;-65
2023/10/12 01:46:40;;;;;;;8.05;4.30;;;;;18.70;98461.00;;;;5051621;28;20045;-65
2023/10/12 01:49:08;;;;;;;8.32;4.50;;;;;18.80;98462.00;;;;5051507;28;20528;-66
2023/10/12 01:51:44;;;;;;;8.68;4.32;;;;;18.80;98460.00;;;;5051353;28;20111;-66
2023/10/12 01:54:12;;;;;;;9.82;5.20;;;;;18.80;98453.00;;;;5050739;28;20049;-66
2023/10/12 01:56:39;;;;;;;7.75;4.38;;;;;18.80;98458.00;;;;5052599;28;20558;-65
2023/10/12 01:59:07;;;;;;;12.38;4.22;;;;;18.70;98465.00;;;;5051278;28;20502;-66
2023/10/12 02:01:34;;;;;;;10.93;4.82;;;;;18.80;98465.00;;;;5051379;28;20733;-66
2023/10/12 02:04:05;;;;;;;9.63;4.88;;;;;18.70;98465.00;;;;5050673;28;20076;-67
2023/10/12 02:06:33;;;;;;;16.60;4.93;;;;;18.70;98470.00;;;;5051504;28;20045;-66
2023/10/12 02:09:08;;;;;;;7.53;4.32;;;;;18.70;98453.00;;;;5052472;28;20068;-66
2023/10/12 02:11:43;;;;;;;9.10;4.63;;;;;18.70;98459.00;;;;5052512;28;20049;-66
2023/10/12 02:14:12;;;;;;;9.23;4.43;;;;;18.70;98459.00;;;;5052204;28;20037;-66
2023/10/12 02:16:43;;;;;;;8.48;5.25;;;;;18.70;98456.00;;;;5051831;28;20076;-66
2023/10/12 02:19:19;;;;;;;8.10;3.80;;;;;18.70;98457.00;;;;5051968;28;20041;-66
2023/10/12 02:21:46;;;;;;;10.10;4.50;;;;;18.60;98458.00;;;;5053315;28;20045;-66
2023/10/12 02:24:14;;;;;;;9.32;4.63;;;;;18.60;98456.00;;;;5051265;28;20049;-66
2023/10/12 02:34:17;;;;;;;13.10;4.97;;;;;18.50;98452.00;;;;5051554;28;20048;-67
2023/10/12 02:37:16;;;;;;;9.98;4.80;;;;;18.50;98463.00;;;;5050660;28;20091;-67
2023/10/12 02:39:43;;;;;;;8.27;4.38;;;;;18.50;98459.00;;;;5050792;28;20045;-64
2023/10/12 02:44:50;;;;;;;10.57;5.05;;;;;18.50;98455.00;;;;5050824;28;20037;-64
2023/10/12 02:47:30;;;;;;;9.10;5.07;;;;;18.50;98456.00;;;;5052054;28;20052;-64
2023/10/12 02:50:15;;;;;;;11.77;4.60;;;;;18.50;98471.00;;;;5051913;28;20045;-65
2023/10/12 02:52:43;;;;;;;9.43;4.72;;;;;18.40;98476.00;;;;5052187;28;20075;-67
2023/10/12 02:57:54;;;;;;;9.00;5.15;;;;;18.30;98477.00;;;;5052031;28;20049;-64
2023/10/12 03:00:38;;;;;;;8.85;5.07;;;;;18.30;98476.00;;;;5051928;28;20049;-64
2023/10/12 03:05:53;;;;;;;7.53;4.85;;;;;18.10;98486.00;;;;5051878;28;20490;-64
2023/10/12 03:08:22;;;;;;;9.80;4.90;;;;;18.10;98491.00;;;;5051695;28;20045;-65
2023/10/12 03:13:35;;;;;;;8.48;4.75;;;;;18.00;98507.00;;;;5050105;28;20057;-63
2023/10/12 03:18:46;;;;;;;11.18;5.00;;;;;17.90;98514.00;;;;5051908;28;20121;-63
2023/10/12 03:21:13;;;;;;;11.85;5.28;;;;;17.80;98511.00;;;;5050225;28;20148;-65
2023/10/12 03:23:46;;;;;;;10.80;4.97;;;;;17.80;98504.00;;;;5050095;28;20053;-63
2023/10/12 03:28:46;;;;;;;8.13;5.32;;;;;17.80;98514.00;;;;5052259;28;20075;-63
2023/10/12 03:31:21;;;;;;;8.45;5.03;;;;;17.70;98514.00;;;;5050834;28;20511;-65
2023/10/12 03:33:53;;;;;;;10.27;4.63;;;;;17.70;98510.00;;;;5051310;28;20045;-66
2023/10/12 03:36:25;;;;;;;8.98;5.38;;;;;17.80;98496.00;;;;5050452;28;20045;-65
2023/10/12 03:45:07;;;;;;;9.32;4.85;;;;;17.80;98509.00;;;;5050918;28;20074;-65
2023/10/12 03:47:05;;;;;;;13.65;5.57;;;;;17.80;98513.00;;;;5050759;28;20140;-65
2023/10/12 03:49:32;;;;;;;9.50;5.55;;;;;17.80;98516.00;;;;5050216;28;20059;-65
2023/10/12 03:52:01;;;;;;;8.48;5.13;;;;;17.80;98509.00;;;;5051288;28;20037;-65
2023/10/12 03:54:31;;;;;;;7.00;5.00;;;;;17.80;98505.00;;;;5050656;28;20555;-65
2023/10/12 03:57:19;;;;;;;8.30;5.10;;;;;17.80;98512.00;;;;5053175;28;20708;-65
2023/10/12 03:59:58;;;;;;;8.60;4.78;;;;;17.80;98521.00;;;;5054886;28;20186;-65
2023/10/12 04:02:25;;;;;;;8.20;4.38;;;;;17.70;98538.00;;;;5053714;28;20051;-65
2023/10/12 04:05:15;;;;;;;10.30;5.10;;;;;17.70;98531.00;;;;5054163;28;20045;-65
2023/10/12 04:13:54;;;;;;;10.60;5.72;;;;;17.60;98514.00;;;;5054528;28;20037;-65
2023/10/12 04:18:41;;;;;;;10.73;5.60;;;;;17.60;98522.00;;;;5054352;28;20524;-65
2023/10/12 04:21:10;;;;;;;;;;;;;17.70;98514.00;;;;5055008;28;20045;-65
2023/10/12 04:28:56;;;;;;;13.38;6.05;;;;;17.40;98514.00;;;;5053120;28;20106;-65
2023/10/12 04:34:06;;;;;;;12.15;7.55;;;;;17.20;98502.00;;;;5052464;28;20092;-67
2023/10/12 04:39:27;;;;;;;12.52;7.32;;;;;17.20;98512.00;;;;5054397;28;20045;-67
2023/10/12 04:42:20;;;;;;;14.18;7.45;;;;;17.20;98511.00;;;;5054335;28;20037;-67
2023/10/12 04:45:03;;;;;;;13.10;7.00;;;;;17.20;98508.00;;;;5035697;28;20464;-67
2023/10/12 04:47:30;;;;;;;11.82;6.60;;;;;17.30;98500.00;;;;5054281;28;20526;-66
2023/10/12 04:49:57;;;;;;;11.00;6.30;;;;;17.30;98496.00;;;;5054119;28;20156;-67
2023/10/12 04:52:32;;;;;;;11.70;7.57;;;;;17.40;98491.00;;;;5054110;28;20069;-67
2023/10/12 04:55:06;;;;;;;13.68;7.05;;;;;17.50;98508.00;;;;5053496;28;20045;-64
2023/10/12 04:57:34;;;;;;;12.52;6.28;;;;;17.50;98498.00;;;;5053979;28;20050;-66
2023/10/12 05:00:10;;;;;;;11.15;6.20;;;;;17.50;98496.00;;;;5052649;28;20052;-67
2023/10/12 05:08:00;;;;;;;11.20;6.20;;;;;17.50;98506.00;;;;5051352;28;20684;-66
2023/10/12 05:10:37;;;;;;;14.10;6.95;;;;;17.50;98515.00;;;;5032926;28;20387;-67
2023/10/12 05:13:06;;;;;;;11.90;5.80;;;;;17.50;98499.00;;;;5032757;28;20542;-67
2023/10/12 05:15:54;;;;;;;11.57;5.93;;;;;17.60;98486.00;;;;5033132;28;20091;-67
2023/10/12 05:18:25;;;;;;;8.80;6.00;;;;;17.60;98507.00;;;;5033443;28;20564;-67
2023/10/12 05:20:52;;;;;;;11.48;6.47;;;;;17.60;98502.00;;;;5033705;28;20124;-66
2023/10/12 05:23:19;;;;;;;10.95;6.25;;;;;17.60;98510.00;;;;5033514;28;20060;-65
2023/10/12 05:28:31;;;;;;;11.65;6.43;;;;;17.60;98525.00;;;;5033824;28;20045;-67
2023/10/12 05:36:13;;;;;;;13.02;6.47;;;;;17.40;98520.00;;;;5033799;28;20060;-67
2023/10/12 05:38:49;;;;;;;15.02;6.22;;;;;17.40;98516.00;;;;5033643;28;20049;-67
2023/10/12 05:41:34;;;;;;;12.73;8.15;;;;;17.40;98502.00;;;;5033475;28;20049;-66
2023/10/12 05:44:08;;;;;;;14.15;7.75;;;;;17.20;98490.00;;;;5032699;28;20044;-67
2023/10/12 05:46:36;;;;;;;10.15;7.00;;;;;17.00;98498.00;;;;5035899;28;20516;-67
2023/10/12 05:49:12;;;;;;;13.70;7.07;;;;;16.90;98488.00;;;;5035576;28;20045;-68
2023/10/12 05:51:43;;;;;;;13.00;6.88;;;;;16.90;98500.00;;;;5032996;28;20049;-67
2023/10/12 05:54:15;;;;;;;12.48;7.03;;;;;17.10;98509.00;;;;5031345;28;20115;-67
2023/10/12 05:56:43;;;;;;;11.77;7.82;;;;;17.20;98498.00;;;;5032880;28;20128;-67
2023/10/12 05:59:13;;;;;;;13.07;7.57;;;;;17.30;98520.00;;;;5032859;28;20046;-67
2023/10/12 06:01:45;;;;;;;12.15;8.05;;;;;17.30;98531.00;;;;5033073;28;20444;-66
2023/10/12 06:04:16;;;;;;;13.48;7.45;;;;;17.30;98538.00;;;;5031203;28;20045;-67
2023/10/12 06:06:43;;;;;;;12.55;7.75;;;;;17.30;98548.00;;;;5031343;28;20041;-66
2023/10/12 06:09:24;;;;;;;12.18;7.10;;;;;17.40;98563.00;;;;5032823;28;20041;-67
2023/10/12 06:11:53;;;;;;;13.50;7.10;;;;;17.40;98550.00;;;;5031641;28;20155;-67
2023/10/12 06:14:21;;;;;;;12.02;6.85;;;;;17.40;98540.00;;;;5032095;28;20049;-66
2023/10/12 06:16:54;;;;;;;13.52;7.05;;;;;17.50;98556.00;;;;5032536;28;20041;-67
2023/10/12 06:19:23;;;;;;;14.88;6.75;;;;;17.60;98564.00;;;;5031915;28;20497;-67
2023/10/12 06:21:51;;;;;;;12.95;6.57;;;;;17.60;98562.00;;;;5032652;28;20437;-66
2023/10/12 06:24:23;;;;;;;12.38;5.78;;;;;17.60;98573.00;;;;5032091;28;20099;-67
2023/10/12 06:26:49;;;;;;;10.50;6.50;;;;;17.60;98570.00;;;;5032457;28;20033;-66
2023/10/12 06:29:26;;;;;;;9.13;6.25;;;;;17.60;98575.00;;;;5032595;28;20043;-67
2023/10/12 06:31:57;;;;;;;11.13;7.00;;;;;17.60;98564.00;;;;5032703;28;20494;-67
2023/10/12 06:34:24;;;;;;;16.30;6.93;;;;;17.70;98562.00;;;;5031846;28;20073;-67
2023/10/12 06:36:58;;;;;;;10.95;5.80;;;;;17.80;98559.00;;;;5032275;28;20060;-67
2023/10/12 06:44:26;;;;;;;13.07;7.28;;;;;18.00;98568.00;;;;5031890;28;20533;-66
2023/10/12 06:46:54;;;;;;;13.82;7.85;;;;;18.10;98568.00;;;;5032149;28;20045;-65
2023/10/12 06:49:29;;;;;;;11.07;6.43;;;;;18.10;98570.00;;;;5031039;28;20127;-66
2023/10/12 06:52:02;;;;;;;10.20;6.32;;;;;18.30;98573.00;;;;5030856;28;20049;-66
2023/10/12 06:54:33;;;;;;;13.60;7.50;;;;;18.30;98577.00;;;;5031814;28;20045;-66
2023/10/12 06:57:52;;;;;;;9.38;5.88;;;;;18.40;98584.00;;;;5032255;28;20491;-66
2023/10/12 07:02:27;;;;;;;13.25;6.43;;;;;18.40;98592.00;;;;5032196;28;20041;-65
2023/10/12 07:04:55;;;;;;;10.68;6.05;;;;;18.40;98591.00;;;;5031494;28;20515;-66
2023/10/12 07:07:30;;;;;;;9.57;6.10;;;;;18.40;98595.00;;;;5032000;28;20479;-67
2023/10/12 07:12:47;;;;;;;12.02;6.85;;;;;18.50;98583.00;;;;5030793;28;20084;-65
2023/10/12 07:15:26;;;;;;;14.95;6.70;;;;;18.60;98580.00;;;;5031570;28;20384;-66
2023/10/12 07:17:53;;;;;;;9.65;6.32;;;;;18.60;98586.00;;;;5031752;28;20052;-66
2023/10/12 07:23:14;;;;;;;12.35;6.45;;;;;18.70;98591.00;;;;5031981;28;20525;-67
2023/10/12 07:25:48;;;;;;;10.15;6.22;;;;;18.70;98593.00;;;;5031605;28;20041;-66
2023/10/12 07:28:26;;;;;;;13.30;6.72;;;;;18.70;98577.00;;;;5031033;28;20401;-65
2023/10/12 07:31:23;;;;;;;14.15;6.60;;;;;18.80;98580.00;;;;5034137;28;20045;-66
2023/10/12 07:39:38;;;;;;;13.70;6.68;;;;;19.10;98575.00;;;;5036187;28;20045;-67
2023/10/12 07:42:06;;;;;;;13.00;6.60;;;;;19.10;98585.00;;;;5036209;28;20041;-67
2023/10/12 07:45:15;;;;;;;10.85;6.95;;;;;19.20;98574.00;;;;5035397;28;20048;-67
2023/10/12 07:47:31;;;;;;;10.40;6.05;;;;;19.20;98591.00;;;;5032867;28;20088;-67
2023/10/12 07:50:07;;;;;;;13.07;6.15;;;;;19.30;98597.00;;;;5034815;28;20056;-67
2023/10/12 07:52:52;;;;;;;13.30;9.20;;;;;19.30;98557.00;;;;5034513;28;20045;-66
2023/10/12 07:55:18;;;;;;;12.85;6.82;;;;;19.30;98579.00;;;;5035931;28;20051;-66
2023/10/12 07:57:46;;;;;;;12.77;7.05;;;;;19.40;98587.00;;;;5035949;28;20041;-66
2023/10/12 08:00:51;;;;;;;13.27;6.60;;;;;19.50;98604.00;;;;5036082;28;20042;-66
2023/10/12 08:16:04;;;;;;;11.65;6.50;;;;;19.70;98635.00;;;;5033947;28;20057;-66
2023/10/12 08:21:32;;;;;;;15.25;7.65;;;;;19.80;98620.00;;;;5026479;28;20065;-66
2023/10/12 08:24:09;;;;;;;14.10;6.35;;;;;20.00;98627.00;;;;5033247;28;20054;-67
2023/10/12 08:29:17;;;;;;;12.43;7.40;;;;;20.40;98635.00;;;;5036406;28;20037;-67
2023/10/12 08:31:44;;;;;;;11.60;6.10;;;;;20.50;98645.00;;;;5049353;28;20486;-65
2023/10/12 08:39:52;;;;;;;10.43;6.57;;;;;20.70;98646.00;;;;5052140;28;20048;-66
2023/10/12 08:45:15;;;;;;;13.18;7.18;;;;;20.70;98657.00;;;;5052168;28;20042;-66
2023/10/12 08:47:49;;;;;;;11.07;6.45;;;;;20.80;98671.00;;;;5049929;28;20050;-66
2023/10/12 08:52:50;;;;;;;9.63;6.20;;;;;20.80;98640.00;;;;5034529;28;20041;-66
2023/10/12 08:55:25;;;;;;;11.82;6.47;;;;;20.90;98655.00;;;;5033754;28;20440;-66
2023/10/12 08:58:31;;;;;;;15.15;7.00;;;;;20.90;98651.00;;;;5034143;28;20034;-67
2023/10/12 09:03:28;;;;;;;12.40;6.60;;;;;20.90;98648.00;;;;5033734;28;20041;-67
2023/10/12 09:05:55;;;;;;;12.80;7.35;;;;;20.90;98648.00;;;;5034029;28;20125;-67
2023/10/12 09:10:49;;;;;;;16.95;7.57;;;;;21.00;98634.00;;;;5033939;28;20121;-67
2023/10/12 09:13:17;;;;;;;14.77;7.55;;;;;21.00;98636.00;;;;5033805;28;20037;-67
2023/10/12 09:15:45;;;;;;;16.75;6.75;;;;;21.10;98646.00;;;;5033031;28;20041;-66
2023/10/12 09:18:16;;;;;;;15.07;7.82;;;;;21.20;98648.00;;;;5032286;28;20482;-67
2023/10/12 09:31:13;;;;;;;10.65;6.97;;;;;21.20;98654.00;;;;5034200;28;20534;-66
2023/10/12 09:33:45;;;;;;;15.57;7.28;;;;;21.20;98644.00;;;;5033659;28;20041;-67
2023/10/12 09:36:12;;;;;;;12.07;6.60;;;;;21.10;98662.00;;;;5034014;28;20052;-66
2023/10/12 09:38:38;;;;;;;12.82;6.65;;;;;21.10;98662.00;;;;5033650;28;20076;-67
2023/10/12 09:41:09;;;;;;;11.88;7.32;;;;;21.00;98664.00;;;;5033521;28;20474;-67
2023/10/12 09:43:39;;;;;;;11.90;7.72;;;;;21.00;98658.00;;;;5032104;28;20077;-67
2023/10/12 09:46:09;;;;;;;13.93;7.18;;;;;20.90;98660.00;;;;5033375;28;20115;-67
2023/10/12 09:48:38;;;;;;;16.42;7.45;;;;;20.90;98671.00;;;;5033250;28;20402;-67
2023/10/12 09:51:10;;;;;;;11.25;7.10;;;;;20.80;98678.00;;;;5033087;28;20045;-68
2023/10/12 09:53:43;;;;;;;16.08;7.85;;;;;20.70;98682.00;;;;5032946;28;20457;-67
2023/10/12 09:56:15;;;;;;;12.32;6.90;;;;;20.70;98689.00;;;;5033192;28;20045;-67
2023/10/12 09:58:52;;;;;;;13.18;8.13;;;;;20.80;98696.00;;;;5032890;28;20041;-67
2023/10/12 10:01:29;;;;;;;14.38;7.43;;;;;20.80;98691.00;;;;5032834;28;20045;-67
2023/10/12 10:04:27;;;;;;;12.75;7.47;;;;;20.90;98692.00;;;;5032321;28;20049;-67
2023/10/12 10:06:51;;;;;;;14.82;7.55;;;;;21.00;98714.00;;;;5032964;28;20442;-66
2023/10/12 10:09:37;;;;;;;13.07;6.75;;;;;21.00;98691.00;;;;5032981;28;20490;-67
2023/10/12 10:12:07;;;;;;;11.40;6.97;;;;;21.00;98708.00;;;;5032984;28;20049;-67
2023/10/12 10:14:36;;;;;;;15.57;7.80;;;;;20.90;98713.00;;;;5032157;28;20128;-67
2023/10/12 10:17:09;;;;;;;13.68;7.53;;;;;21.00;98699.00;;;;5032357;28;20033;-67
2023/10/12 10:19:36;;;;;;;12.43;7.33;;;;;21.00;98702.00;;;;5032923;28;20124;-67
2023/10/12 10:22:06;;;;;;;14.77;8.00;;;;;21.10;98693.00;;;;5032516;28;20288;-67
2023/10/12 10:24:44;;;;;;;15.45;7.82;;;;;21.20;98691.00;;;;5032317;28;20147;-64
2023/10/12 10:27:12;;;;;;;11.27;6.82;;;;;21.20;98712.00;;;;5032331;28;20041;-63
2023/10/12 10:29:47;;;;;;;10.88;7.40;;;;;21.20;98729.00;;;;5032298;28;20537;-64
2023/10/12 10:32:16;;;;;;;14.45;7.65;;;;;21.20;98725.00;;;;5032386;28;20442;-67
2023/10/12 10:34:43;;;;;;;12.27;7.30;;;;;21.20;98722.00;;;;5031767;28;20525;-67
2023/10/12 10:37:11;;;;;;;10.07;7.50;;;;;21.20;98721.00;;;;5032054;28;20453;-66
2023/10/12 10:39:43;;;;;;;12.32;8.90;;;;;21.30;98694.00;;;;5032273;28;20076;-67
2023/10/12 10:42:10;;;;;;;13.82;7.78;;;;;21.30;98703.00;;;;5032445;28;20056;-67
2023/10/12 10:44:45;;;;;;;17.33;8.15;;;;;21.20;98705.00;;;;5031554;28;20411;-67
2023/10/12 10:47:15;;;;;;;14.27;8.20;;;;;21.10;98709.00;;;;5032081;28;20050;-65
2023/10/12 10:49:48;;;;;;;15.00;7.55;;;;;21.00;98704.00;;;;5031012;28;20045;-66
2023/10/12 10:52:18;;;;;;;14.43;7.53;;;;;20.90;98680.00;;;;5032128;28;20055;-65
2023/10/12 10:54:56;;;;;;;13.70;7.32;;;;;20.90;98654.00;;;;5030305;28;20062;-65
2023/10/12 10:57:31;;;;;;;11.85;7.90;;;;;20.90;98646.00;;;;5031979;28;20046;-64
2023/10/12 10:59:58;;;;;;;14.07;7.55;;;;;20.90;98654.00;;;;5031949;28;20375;-65
2023/10/12 11:02:26;;;;;;;17.50;7.70;;;;;20.90;98663.00;;;;5030870;28;20045;-65
2023/10/12 11:04:55;;;;;;;13.15;8.35;;;;;20.90;98664.00;;;;5031210;28;20403;-65
2023/10/12 11:07:22;;;;;;;13.68;7.18;;;;;20.80;98670.00;;;;5036155;28;20111;-65
2023/10/12 11:12:25;;;;;;;14.13;7.93;;;;;20.70;98673.00;;;;5036019;28;20041;-65
2023/10/12 11:17:40;;;;;;;14.30;7.18;;;;;20.50;98657.00;;;;5035776;28;20076;-65
2023/10/12 11:20:35;;;;;;;9.43;7.32;;;;;20.50;98651.00;;;;5036233;28;20453;-65
2023/10/12 11:23:06;;;;;;;16.52;8.40;;;;;20.50;98647.00;;;;5035806;28;20096;-66
2023/10/12 11:25:39;;;;;;;12.25;7.60;;;;;20.40;98637.00;;;;5034144;28;20061;-65
2023/10/12 11:28:20;;;;;;;10.45;7.05;;;;;20.40;98624.00;;;;5035845;28;20048;-65
2023/10/12 11:30:49;;;;;;;17.30;7.80;;;;;20.30;98635.00;;;;5035790;28;20041;-64
2023/10/12 11:33:16;;;;;;;13.85;7.90;;;;;20.30;98624.00;;;;5035954;28;20049;-65
2023/10/12 11:35:49;;;;;;;11.90;7.43;;;;;20.30;98622.00;;;;5035508;28;20172;-65
2023/10/12 11:38:17;;;;;;;14.88;9.35;;;;;20.30;98628.00;;;;5035474;28;20037;-65
2023/10/12 11:40:52;;;;;;;12.55;8.80;;;;;20.40;98614.00;;;;5034343;28;20054;-65
2023/10/12 11:43:21;;;;;;;15.27;7.32;;;;;20.30;98613.00;;;;5035503;28;20041;-65
2023/10/12 11:46:01;;;;;;;14.55;7.65;;;;;20.20;98613.00;;;;5035078;28;20506;-66
2023/10/12 11:48:30;;;;;;;20.05;9.27;;;;;20.20;98621.00;;;;5035534;28;20154;-65
2023/10/12 11:50:59;;;;;;;12.30;6.70;;;;;20.20;98617.00;;;;5035878;28;20065;-65
2023/10/12 11:53:28;;;;;;;11.52;7.13;;;;;20.20;98613.00;;;;5035307;28;20129;-65
2023/10/12 11:56:04;;;;;;;12.60;7.50;;;;;20.20;98607.00;;;;5036073;28;20041;-65
2023/10/12 11:58:32;;;;;;;11.93;8.00;;;;;20.20;98599.00;;;;5035286;28;20041;-65
2023/10/12 12:01:00;;;;;;;11.68;7.13;;;;;20.30;98598.00;;;;5035244;28;20394;-65
2023/10/12 12:03:27;;;;;;;17.48;7.50;;;;;20.30;98601.00;;;;5034965;28;20465;-65
2023/10/12 12:05:56;;;;;;;11.48;7.70;;;;;20.30;98598.00;;;;5035221;28;20048;-65
2023/10/12 12:08:25;;;;;;;17.30;8.18;;;;;20.30;98581.00;;;;5035238;28;20065;-65
2023/10/12 12:10:55;;;;;;;15.50;8.05;;;;;20.40;98578.00;;;;5035341;28;20121;-65
2023/10/12 12:13:23;;;;;;;15.77;9.52;;;;;20.40;98572.00;;;;5034080;28;20141;-64
2023/10/12 12:15:55;;;;;;;14.10;8.02;;;;;20.40;98571.00;;;;5034560;28;20383;-65
2023/10/12 12:18:22;;;;;;;17.00;8.30;;;;;20.40;98563.00;;;;5032589;28;20051;-65
2023/10/12 12:20:56;;;;;;;13.98;7.65;;;;;20.40;98547.00;;;;5034852;28;20395;-65
2023/10/12 12:23:27;;;;;;;14.80;7.70;;;;;20.40;98531.00;;;;5034832;28;20449;-65
2023/10/12 12:26:07;;;;;;;13.63;7.88;;;;;20.50;98535.00;;;;5033659;28;20100;-65
2023/10/12 12:28:43;;;;;;;13.77;6.32;;;;;20.70;98536.00;;;;5033568;28;20076;-65
2023/10/12 12:31:15;;;;;;;13.02;6.93;;;;;20.70;98537.00;;;;5033537;28;20060;-65
2023/10/12 12:33:43;;;;;;;17.88;8.75;;;;;20.80;98526.00;;;;5034682;28;20064;-65
2023/10/12 12:36:22;;;;;;;14.00;8.57;;;;;20.80;98539.00;;;;5035021;28;20132;-65
2023/10/12 12:38:57;;;;;;;14.68;7.70;;;;;20.90;98537.00;;;;5033365;28;20069;-65
2023/10/12 12:41:24;;;;;;;12.48;7.57;;;;;20.80;98539.00;;;;5035344;28;20458;-65
2023/10/12 12:43:52;;;;;;;14.05;7.07;;;;;20.80;98525.00;;;;5033148;28;20617;-65
2023/10/12 12:46:19;;;;;;;16.17;7.32;;;;;20.80;98537.00;;;;5034976;28;20113;-64
2023/10/12 12:48:50;;;;;;;13.63;7.63;;;;;20.80;98535.00;;;;5034758;28;20451;-65
2023/10/12 12:51:20;;;;;;;11.18;7.32;;;;;20.80;98537.00;;;;5034785;28;20041;-65
2023/10/12 12:53:48;;;;;;;14.55;7.05;;;;;20.90;98541.00;;;;5034547;28;20053;-64
2023/10/12 12:56:19;;;;;;;11.48;7.22;;;;;20.90;98534.00;;;;5034206;28;20140;-65
2023/10/12 12:58:47;;;;;;;13.07;6.72;;;;;20.80;98543.00;;;;5034252;28;20479;-65
2023/10/12 13:01:18;;;;;;;11.13;6.47;;;;;20.90;98541.00;;;;5034357;28;20045;-65
2023/10/12 13:03:45;;;;;;;11.52;7.75;;;;;20.90;98544.00;;;;5033898;28;20477;-65
2023/10/12 13:06:16;;;;;;;15.15;7.20;;;;;20.90;98535.00;;;;5034358;28;20403;-66
2023/10/12 13:08:42;;;;;;;18.55;7.82;;;;;20.90;98546.00;;;;5034565;28;20049;-65
2023/10/12 13:11:09;;;;;;;17.23;8.65;;;;;21.00;98531.00;;;;5034062;28;20052;-64
2023/10/12 13:13:39;;;;;;;10.00;7.25;;;;;21.10;98537.00;;;;5033599;28;20041;-65
2023/10/12 13:16:12;;;;;;;17.88;7.40;;;;;21.20;98527.00;;;;5034038;28;20046;-65
2023/10/12 13:18:46;;;;;;;11.00;7.28;;;;;21.30;98534.00;;;;5033833;28;20041;-65
2023/10/12 13:21:16;;;;;;;12.85;7.57;;;;;21.30;98517.00;;;;5033839;28;20104;-65
2023/10/12 13:23:44;;;;;;;13.68;7.40;;;;;21.40;98523.00;;;;5033343;28;20494;-65
2023/10/12 13:26:14;;;;;;;13.50;7.50;;;;;21.40;98527.00;;;;5016466;28;20475;-65
2023/10/12 13:28:44;;;;;;;13.80;7.38;;;;;21.40;98525.00;;;;5033222;28;20042;-65
2023/10/12 13:31:11;;;;;;;15.18;7.75;;;;;21.50;98531.00;;;;5033520;28;20128;-64
2023/10/12 13:33:39;;;;;;;11.50;7.10;;;;;21.50;98528.00;;;;5033220;28;20041;-65
2023/10/12 13:36:08;;;;;;;12.85;7.70;;;;;21.40;98538.00;;;;5034141;28;20068;-64
2023/10/12 13:38:37;;;;;;;17.65;8.00;;;;;21.40;98525.00;;;;5033554;28;20041;-65
2023/10/12 13:41:04;;;;;;;10.57;7.60;;;;;21.20;98536.00;;;;5032072;28;20103;-66
2023/10/12 13:43:30;;;;;;;13.25;7.05;;;;;21.10;98548.00;;;;5032918;28;20526;-65
2023/10/12 13:45:58;;;;;;;12.23;8.10;;;;;20.90;98554.00;;;;5033202;28;20157;-66
2023/10/12 13:48:29;;;;;;;13.10;7.20;;;;;20.70;98568.00;;;;5031605;28;20047;-66
2023/10/12 13:51:20;;;;;;;14.88;7.60;;;;;20.60;98549.00;;;;5032154;28;20041;-66
2023/10/12 13:53:46;;;;;;;12.32;7.05;;;;;20.70;98539.00;;;;5032195;28;20557;-65
2023/10/12 13:56:13;;;;;;;14.32;7.22;;;;;20.90;98548.00;;;;5031741;28;20045;-65
2023/10/12 13:58:41;;;;;;;15.70;7.40;;;;;21.00;98552.00;;;;5015092;28;20103;-66
2023/10/12 14:01:14;;;;;;;10.50;7.68;;;;;21.00;98540.00;;;;5032921;28;20077;-66
2023/10/12 14:03:45;;;;;;;11.82;8.57;;;;;21.10;98548.00;;;;5030903;28;20072;-65
2023/10/12 14:06:12;;;;;;;15.98;8.82;;;;;21.20;98547.00;;;;5033170;28;20502;-66
2023/10/12 14:08:42;;;;;;;14.57;8.38;;;;;21.20;98543.00;;;;5031552;28;20069;-65
2023/10/12 14:11:19;;;;;;;15.57;9.15;;;;;21.30;98539.00;;;;5031613;28;20077;-65
2023/10/12 14:13:47;;;;;;;18.10;8.77;;;;;21.30;98529.00;;;;5031299;28;20041;-66
2023/10/12 14:16:14;;;;;;;14.15;9.20;;;;;21.30;98528.00;;;;5032569;28;20069;-65
2023/10/12 14:18:42;;;;;;;13.45;8.15;;;;;21.40;98522.00;;;;5032581;28;20043;-65
2023/10/12 14:21:13;;;;;;;11.63;8.77;;;;;21.70;98505.00;;;;5015194;28;20053;-65
2023/10/12 14:23:45;;;;;;;17.92;8.68;;;;;21.80;98507.00;;;;5031924;28;20499;-66
2023/10/12 14:26:22;;;;;;;16.38;9.00;;;;;21.90;98513.00;;;;5032698;28;20068;-65
2023/10/12 14:28:54;;;;;;;13.48;7.82;;;;;22.00;98512.00;;;;5032476;28;20091;-65
2023/10/12 14:31:22;;;;;;;20.67;10.68;;;;;22.00;98522.00;;;;5032638;28;20052;-65
2023/10/12 14:33:51;;;;;;;15.75;8.93;;;;;22.00;98520.00;;;;5014642;28;20064;-65
2023/10/12 14:36:19;;;;;;;15.77;8.50;;;;;21.90;98517.00;;;;5031568;28;20049;-65
2023/10/12 14:38:47;;;;;;;14.38;8.10;;;;;21.80;98510.00;;;;5032513;28;20472;-65
2023/10/12 14:41:16;;;;;;;13.57;8.60;;;;;21.70;98505.00;;;;5032064;28;20065;-66
2023/10/12 14:43:47;;;;;;;11.18;7.55;;;;;21.70;98505.00;;;;5032850;28;20044;-65
2023/10/12 14:46:18;;;;;;;12.15;8.18;;;;;21.80;98506.00;;;;5032993;28;20557;-64
2023/10/12 14:48:49;;;;;;;15.73;7.82;;;;;21.80;98515.00;;;;5033384;28;20454;-65
2023/10/12 14:51:25;;;;;;;15.13;8.30;;;;;21.70;98514.00;;;;5032263;28;20080;-65
2023/10/12 14:53:52;;;;;;;15.88;10.25;;;;;21.60;98515.00;;;;5031690;28;20075;-64